createdAt,value
2022-12-19T00:00:36.997Z,25.03
2022-12-19T00:03:09.588Z,46.13
2022-12-19T00:05:40.801Z,65.80
2022-12-19T00:08:18.134Z,35.50
2022-12-19T00:10:48.498Z,32.83
2022-12-19T00:13:21.217Z,32.10
2022-12-19T00:15:51.516Z,26.70
2022-12-19T00:18:24.179Z,24.60
2022-12-19T00:21:01.674Z,22.77
2022-12-19T00:23:33.188Z,29.37
2022-12-19T00:26:11.080Z,29.53
2022-12-19T00:28:41.156Z,36.67
2022-12-19T00:31:15.810Z,23.77
2022-12-19T00:33:48.609Z,31.65
2022-12-19T00:36:22.845Z,28.50
2022-12-19T00:38:54.019Z,22.30
2022-12-19T00:41:25.725Z,30.47
2022-12-19T00:43:56.777Z,25.07
2022-12-19T00:46:27.385Z,30.27
2022-12-19T00:49:00.238Z,35.87
2022-12-19T00:51:31.942Z,25.63
2022-12-19T00:54:02.381Z,23.53
2022-12-19T00:56:38.420Z,31.42
2022-12-19T00:59:10.686Z,28.97
2022-12-19T01:01:43.801Z,27.87
2022-12-19T01:04:28.315Z,34.87
2022-12-19T01:07:01.735Z,33.17
2022-12-19T01:09:35.131Z,28.93
2022-12-19T01:12:17.975Z,26.27
2022-12-19T01:14:48.226Z,26.87
2022-12-19T01:17:18.413Z,40.17
2022-12-19T01:19:50.954Z,25.03
2022-12-19T01:22:20.893Z,32.70
2022-12-19T01:24:50.794Z,30.93
2022-12-19T01:27:20.750Z,33.30
2022-12-19T01:29:52.202Z,34.43
2022-12-19T01:32:24.449Z,28.73
2022-12-19T01:34:57.261Z,32.13
2022-12-19T01:37:27.199Z,28.03
2022-12-19T01:39:57.103Z,30.80
2022-12-19T01:42:27.040Z,35.97
2022-12-19T01:45:33.125Z,38.07
2022-12-19T01:48:09.777Z,33.30
2022-12-19T01:51:01.982Z,34.17
2022-12-19T01:53:45.179Z,28.97
2022-12-19T01:56:19.959Z,27.07
2022-12-19T01:58:58.904Z,36.87
2022-12-19T02:01:44.987Z,44.57
2022-12-19T02:04:26.053Z,33.10
2022-12-19T02:07:08.162Z,22.80
2022-12-19T02:09:53.003Z,37.90
2022-12-19T02:12:34.160Z,43.08
2022-12-19T02:15:05.518Z,36.88
2022-12-19T02:17:46.456Z,40.17
2022-12-19T02:20:48.102Z,31.65
2022-12-19T02:23:39.975Z,34.50
2022-12-19T02:26:30.209Z,30.67
2022-12-19T02:29:34.994Z,23.60
2022-12-19T02:32:11.962Z,30.15
2022-12-19T02:34:48.672Z,36.87
2022-12-19T02:37:23.693Z,36.07
2022-12-19T02:39:58.464Z,39.97
2022-12-19T02:42:32.879Z,42.57
2022-12-19T02:45:08.061Z,29.83
2022-12-19T02:47:42.119Z,37.00
2022-12-19T02:50:13.914Z,35.67
2022-12-19T02:52:48.861Z,37.60
2022-12-19T02:55:25.469Z,40.97
2022-12-19T02:58:22.236Z,36.67
2022-12-19T03:01:00.337Z,38.90
2022-12-19T03:03:42.518Z,40.90
2022-12-19T03:06:21.005Z,47.83
2022-12-19T03:08:58.418Z,40.13
2022-12-19T03:11:31.569Z,36.30
2022-12-19T03:14:04.824Z,38.77
2022-12-19T03:16:37.556Z,40.63
2022-12-19T03:19:13.620Z,37.72
2022-12-19T03:21:46.224Z,43.13
2022-12-19T03:24:16.824Z,38.70
2022-12-19T03:26:51.691Z,43.87
2022-12-19T03:29:28.266Z,41.57
2022-12-19T03:32:00.095Z,44.50
2022-12-19T03:34:39.360Z,44.10
2022-12-19T03:37:14.343Z,36.43
2022-12-19T03:39:48.309Z,47.60
2022-12-19T03:42:33.933Z,45.03
2022-12-19T03:45:06.557Z,44.77
2022-12-19T03:47:40.012Z,40.50
2022-12-19T03:50:13.402Z,47.83
2022-12-19T03:52:49.687Z,46.80
2022-12-19T03:55:23.983Z,38.87
2022-12-19T03:57:59.254Z,39.13
2022-12-19T04:00:30.303Z,51.33
2022-12-19T04:03:02.269Z,41.83
2022-12-19T04:05:36.470Z,41.40
2022-12-19T04:08:09.408Z,56.95
2022-12-19T04:10:49.573Z,58.30
2022-12-19T04:13:23.235Z,54.73
2022-12-19T04:15:59.200Z,29.17
2022-12-19T04:18:33.041Z,34.30
2022-12-19T04:21:11.275Z,32.97
2022-12-19T04:23:45.397Z,51.73
2022-12-19T04:26:17.743Z,51.55
2022-12-19T04:28:52.406Z,44.20
2022-12-19T04:31:23.938Z,46.47
2022-12-19T04:33:53.968Z,45.97
2022-12-19T04:36:27.907Z,44.23
2022-12-19T04:38:57.886Z,43.22
2022-12-19T04:41:27.850Z,41.00
2022-12-19T04:43:57.816Z,54.03
2022-12-19T04:46:27.796Z,34.10
2022-12-19T04:48:57.739Z,42.40
2022-12-19T04:51:30.530Z,41.20
2022-12-19T04:54:00.428Z,54.87
2022-12-19T04:56:30.392Z,41.40
2022-12-19T04:59:01.877Z,45.60
2022-12-19T05:01:31.875Z,40.47
2022-12-19T05:04:04.681Z,38.80
2022-12-19T05:06:37.520Z,39.47
2022-12-19T05:09:07.475Z,42.30
2022-12-19T05:11:37.426Z,43.27
2022-12-19T05:14:07.364Z,48.33
2022-12-19T05:16:37.303Z,42.57
2022-12-19T05:19:07.290Z,38.77
2022-12-19T05:21:39.778Z,39.50
2022-12-19T05:24:10.560Z,36.13
2022-12-19T05:26:40.586Z,39.87
2022-12-19T05:29:11.399Z,38.03
2022-12-19T05:31:41.382Z,47.27
2022-12-19T05:34:11.453Z,32.10
2022-12-19T05:36:43.989Z,43.57
2022-12-19T05:39:14.362Z,42.40
2022-12-19T05:41:47.593Z,46.33
2022-12-19T05:44:19.518Z,34.53
2022-12-19T05:46:49.569Z,45.03
2022-12-19T05:49:19.699Z,43.83
2022-12-19T05:51:52.786Z,46.13
2022-12-19T05:54:22.756Z,47.90
2022-12-19T05:56:52.699Z,41.27
2022-12-19T05:59:22.693Z,38.13
2022-12-19T06:01:52.643Z,39.87
2022-12-19T06:04:22.673Z,41.83
2022-12-19T06:06:55.123Z,48.70
2022-12-19T06:09:25.357Z,46.63
2022-12-19T06:11:55.655Z,43.13
2022-12-19T06:14:25.982Z,36.40
2022-12-19T06:16:56.237Z,47.10
2022-12-19T06:19:26.436Z,48.13
2022-12-19T06:21:58.940Z,50.67
2022-12-19T06:24:29.055Z,48.97
2022-12-19T06:26:59.068Z,45.57
2022-12-19T06:29:29.319Z,43.37
2022-12-19T06:31:59.292Z,41.93
2022-12-19T06:35:02.158Z,50.73
2022-12-19T06:37:22.154Z,41.03
2022-12-19T06:39:53.665Z,41.47
2022-12-19T06:42:24.033Z,45.23
2022-12-19T06:44:56.107Z,46.80
2022-12-19T06:47:27.035Z,42.83
2022-12-19T06:49:57.224Z,40.87
2022-12-19T06:52:29.736Z,34.33
2022-12-19T06:55:00.012Z,44.37
2022-12-19T06:57:29.918Z,45.30
2022-12-19T07:00:00.981Z,37.07
2022-12-19T07:02:34.669Z,45.27
2022-12-19T07:05:08.242Z,25.92
2022-12-19T07:07:41.322Z,29.77
2022-12-19T07:10:13.005Z,40.07
2022-12-19T07:12:42.974Z,39.90
2022-12-19T07:15:13.818Z,47.53
2022-12-19T07:17:43.817Z,44.83
2022-12-19T07:20:15.251Z,39.97
2022-12-19T07:22:48.378Z,49.67
2022-12-19T07:25:19.068Z,48.43
2022-12-19T07:27:50.318Z,42.07
2022-12-19T07:30:20.600Z,49.83
2022-12-19T07:32:50.511Z,51.40
2022-12-19T07:35:22.246Z,48.23
2022-12-19T07:37:54.730Z,50.87
2022-12-19T07:40:24.869Z,41.17
2022-12-19T07:42:54.870Z,54.93
2022-12-19T07:45:25.068Z,49.47
2022-12-19T07:47:54.989Z,46.03
2022-12-19T07:50:24.964Z,45.03
2022-12-19T07:52:57.708Z,51.13
2022-12-19T07:55:27.681Z,46.23
2022-12-19T07:57:58.180Z,43.30
2022-12-19T08:00:28.063Z,45.33
2022-12-19T08:02:58.050Z,42.20
2022-12-19T08:05:28.841Z,56.43
2022-12-19T08:08:01.344Z,54.00
2022-12-19T08:10:31.252Z,42.63
2022-12-19T08:13:01.189Z,47.93
2022-12-19T08:15:31.170Z,54.50
2022-12-19T08:18:01.691Z,43.30
2022-12-19T08:20:31.613Z,56.87
2022-12-19T08:23:04.205Z,48.03
2022-12-19T08:25:34.108Z,44.00
2022-12-19T08:28:04.217Z,41.07
2022-12-19T08:30:34.212Z,41.87
2022-12-19T08:33:05.927Z,36.20
2022-12-19T08:35:36.220Z,49.23
2022-12-19T08:40:28.671Z,44.53
2022-12-19T08:42:58.863Z,44.03
2022-12-19T08:45:29.099Z,45.57
2022-12-19T08:47:59.060Z,44.87
2022-12-19T08:50:29.121Z,41.73
2022-12-19T08:52:59.357Z,49.07
2022-12-19T08:55:31.879Z,46.20
2022-12-19T08:58:01.890Z,42.70
2022-12-19T09:00:31.828Z,54.67
2022-12-19T09:03:01.944Z,46.97
2022-12-19T09:06:03.332Z,50.27
2022-12-19T09:08:21.996Z,39.10
2022-12-19T09:10:59.697Z,42.27
2022-12-19T09:13:30.924Z,43.67
2022-12-19T09:16:05.603Z,53.00
2022-12-19T09:18:36.271Z,45.77
2022-12-19T09:21:07.912Z,44.17
2022-12-19T09:23:38.899Z,40.90
2022-12-19T09:26:13.928Z,50.63
2022-12-19T09:28:44.569Z,49.93
2022-12-19T09:31:16.782Z,43.40
2022-12-19T09:33:47.151Z,44.43
2022-12-19T09:36:19.065Z,43.77
2022-12-19T09:38:49.552Z,46.50
2022-12-19T09:41:42.275Z,49.57
2022-12-19T09:44:26.869Z,45.93
2022-12-19T09:46:59.846Z,43.80
2022-12-19T09:49:33.884Z,44.10
2022-12-19T09:52:15.053Z,41.97
2022-12-19T09:54:49.017Z,43.97
2022-12-19T09:57:27.261Z,39.55
2022-12-19T10:00:02.881Z,48.83
2022-12-19T10:02:42.304Z,48.20
2022-12-19T10:05:32.976Z,46.40
2022-12-19T10:08:20.514Z,41.33
2022-12-19T10:12:37.820Z,43.17
2022-12-19T10:14:10.794Z,41.57
2022-12-19T10:17:08.956Z,47.07
2022-12-19T10:19:50.793Z,45.77
2022-12-19T10:22:30.325Z,47.40
2022-12-19T10:25:12.277Z,41.90
2022-12-19T10:27:58.736Z,45.70
2022-12-19T10:30:37.835Z,38.60
2022-12-19T10:33:21.162Z,45.97
2022-12-19T10:36:02.362Z,56.13
2022-12-19T10:38:39.344Z,42.50
2022-12-19T10:41:20.389Z,39.97
2022-12-19T10:43:59.593Z,49.93
2022-12-19T10:46:41.368Z,40.97
2022-12-19T10:49:17.082Z,47.00
2022-12-19T10:51:59.951Z,41.93
2022-12-19T10:54:41.934Z,43.33
2022-12-19T10:57:25.394Z,49.73
2022-12-19T11:00:00.481Z,46.30
2022-12-19T11:02:42.598Z,36.90
2022-12-19T11:05:28.074Z,45.53
2022-12-19T11:08:06.848Z,41.83
2022-12-19T11:12:03.597Z,48.53
2022-12-19T11:18:47.483Z,42.63
2022-12-19T11:22:41.234Z,36.57
2022-12-19T11:29:38.303Z,40.13
2022-12-19T11:30:07.046Z,45.43
2022-12-19T11:30:09.082Z,42.37
2022-12-19T11:30:46.076Z,52.93
2022-12-19T11:34:09.996Z,40.03
2022-12-19T11:36:50.651Z,49.87
2022-12-19T11:39:25.644Z,39.53
2022-12-19T11:42:03.453Z,38.63
2022-12-19T11:44:38.056Z,47.07
2022-12-19T11:47:19.854Z,44.23
2022-12-19T11:49:58.051Z,43.77
2022-12-19T11:55:35.600Z,39.23
2022-12-19T11:58:05.516Z,44.67
2022-12-19T12:00:36.567Z,38.60
2022-12-19T12:03:39.695Z,45.13
2022-12-19T12:06:15.465Z,34.80
2022-12-19T12:12:10.431Z,44.30
2022-12-19T12:19:08.579Z,31.10
2022-12-19T12:24:16.479Z,43.13
2022-12-19T12:31:13.693Z,38.80
2022-12-19T12:31:27.719Z,45.43
2022-12-19T12:31:51.388Z,41.20
2022-12-19T12:31:52.226Z,37.13
2022-12-19T12:31:53.909Z,36.17
2022-12-19T12:35:28.675Z,31.60
2022-12-19T12:37:51.093Z,34.57
2022-12-19T12:39:00.411Z,38.40
2022-12-19T12:41:55.377Z,37.43
2022-12-19T12:44:32.677Z,41.08
2022-12-19T12:47:11.665Z,36.87
2022-12-19T12:49:45.817Z,37.63
2022-12-19T12:52:19.815Z,37.53
2022-12-19T12:54:53.282Z,36.83
2022-12-19T12:57:36.983Z,36.30
2022-12-19T13:00:29.196Z,36.03
2022-12-19T13:03:07.127Z,36.50
2022-12-19T13:05:43.820Z,37.13
2022-12-19T13:08:39.558Z,35.37
2022-12-19T13:11:37.821Z,38.57
2022-12-19T13:14:09.216Z,36.57
2022-12-19T13:16:59.964Z,41.37
2022-12-19T13:19:32.500Z,38.33
2022-12-19T13:22:19.309Z,35.80
2022-12-19T13:24:52.797Z,35.10
2022-12-19T13:27:50.513Z,32.50
2022-12-19T13:30:22.546Z,33.30
2022-12-19T13:33:12.462Z,38.10
2022-12-19T13:39:32.679Z,37.73
2022-12-19T13:39:56.172Z,34.63
2022-12-19T13:41:44.421Z,35.53
2022-12-19T13:44:20.853Z,35.58
2022-12-19T13:46:51.457Z,35.83
2022-12-19T13:49:28.478Z,32.67
2022-12-19T13:52:01.507Z,34.47
2022-12-19T13:54:34.883Z,35.97
2022-12-19T13:57:09.761Z,30.77
2022-12-19T13:59:48.525Z,36.57
2022-12-19T14:02:43.684Z,38.77
2022-12-19T14:06:15.094Z,41.47
2022-12-19T14:08:22.179Z,36.00
2022-12-19T14:11:31.400Z,36.65
2022-12-19T14:14:08.273Z,31.23
2022-12-19T14:16:48.232Z,35.43
2022-12-19T14:19:23.257Z,34.97
2022-12-19T14:22:09.663Z,33.28
2022-12-19T14:24:44.268Z,35.97
2022-12-19T14:28:23.675Z,36.20
2022-12-19T14:30:29.692Z,32.37
2022-12-19T14:33:46.944Z,32.40
2022-12-19T14:36:08.442Z,31.43
2022-12-19T14:39:22.830Z,26.55
2022-12-19T14:42:01.300Z,30.13
2022-12-19T14:52:35.958Z,39.70
2022-12-19T14:52:44.956Z,30.27
2022-12-19T14:54:26.678Z,32.83
2022-12-19T14:54:34.886Z,31.73
2022-12-19T14:56:54.479Z,40.03
2022-12-19T14:59:08.427Z,32.80
2022-12-19T15:01:39.083Z,31.03
2022-12-19T15:04:49.513Z,32.50
2022-12-19T15:07:12.691Z,41.73
2022-12-19T15:11:00.784Z,34.47
2022-12-19T15:14:51.618Z,32.97
2022-12-19T15:15:59.304Z,34.60
2022-12-19T15:18:31.573Z,33.83
2022-12-19T15:21:03.413Z,31.17
2022-12-19T15:23:36.310Z,31.13
2022-12-19T15:26:09.539Z,36.40
2022-12-19T15:28:43.201Z,32.40
2022-12-19T15:31:35.807Z,38.13
2022-12-19T15:34:34.374Z,37.00
2022-12-19T15:37:05.825Z,35.83
2022-12-19T15:39:38.394Z,34.07
2022-12-19T15:42:14.683Z,31.97
2022-12-19T15:44:46.519Z,31.00
2022-12-19T15:47:20.884Z,30.93
2022-12-19T15:52:22.369Z,32.60
2022-12-19T15:54:56.790Z,30.67
2022-12-19T16:00:03.207Z,27.57
2022-12-19T16:05:29.265Z,33.40
2022-12-19T16:07:59.837Z,33.20
2022-12-19T16:10:32.570Z,33.10
2022-12-19T16:13:02.627Z,31.40
2022-12-19T16:15:34.286Z,31.87
2022-12-19T16:18:06.544Z,33.40
2022-12-19T16:20:39.558Z,29.53
2022-12-19T16:23:10.117Z,36.70
2022-12-19T16:25:45.382Z,32.20
2022-12-19T16:28:21.019Z,31.40
2022-12-19T16:30:51.876Z,34.83
2022-12-19T16:33:24.547Z,30.10
2022-12-19T16:36:04.212Z,30.03
2022-12-19T16:38:36.021Z,33.63
2022-12-19T16:41:08.765Z,29.80
2022-12-19T16:43:41.061Z,34.93
2022-12-19T16:46:15.528Z,34.17
2022-12-19T16:51:21.936Z,27.77
2022-12-19T16:53:52.516Z,31.93
2022-12-19T16:56:33.124Z,28.23
2022-12-19T16:59:05.735Z,31.93
2022-12-19T17:01:35.889Z,35.90
2022-12-19T17:04:05.970Z,34.67
2022-12-19T17:06:36.175Z,38.10
2022-12-19T17:09:06.272Z,31.77
2022-12-19T17:11:39.169Z,32.03
2022-12-19T17:14:13.999Z,34.10
2022-12-19T17:16:44.223Z,30.00
2022-12-19T17:19:22.061Z,31.63
2022-12-19T17:21:52.863Z,31.07
2022-12-19T17:24:22.942Z,34.23
2022-12-19T17:26:55.448Z,24.80
2022-12-19T17:29:25.439Z,29.67
2022-12-19T17:31:55.609Z,25.33
2022-12-19T17:34:29.345Z,35.50
2022-12-19T17:37:00.462Z,30.67
2022-12-19T17:39:32.478Z,24.97
2022-12-19T17:42:15.171Z,34.27
2022-12-19T17:44:45.175Z,31.27
2022-12-19T17:47:16.262Z,30.70
2022-12-19T17:49:46.429Z,34.00
2022-12-19T17:52:18.926Z,35.27
2022-12-19T17:54:49.211Z,29.27
2022-12-19T17:57:22.203Z,30.97
2022-12-19T17:59:52.171Z,32.47
2022-12-19T18:02:25.349Z,29.13
2022-12-19T18:04:58.295Z,35.73
2022-12-19T18:07:28.344Z,36.57
2022-12-19T18:09:58.814Z,27.73
2022-12-19T18:12:31.421Z,32.57
2022-12-19T18:15:01.377Z,33.67
2022-12-19T18:17:31.340Z,28.87
2022-12-19T18:20:03.360Z,31.33
2022-12-19T18:22:33.567Z,30.43
2022-12-19T18:25:03.773Z,33.40
2022-12-19T18:27:37.073Z,28.07
2022-12-19T18:30:10.301Z,33.27
2022-12-19T18:32:40.522Z,29.40
2022-12-19T18:35:17.924Z,32.70
2022-12-19T18:37:48.910Z,28.57
2022-12-19T18:40:24.726Z,26.80
2022-12-19T18:43:02.254Z,25.50
2022-12-19T18:45:37.906Z,31.03
2022-12-19T18:48:10.952Z,30.93
2022-12-19T18:50:41.049Z,33.70
2022-12-19T18:53:14.295Z,28.57
2022-12-19T18:55:44.372Z,31.83
2022-12-19T18:58:17.010Z,29.77
2022-12-19T19:00:47.636Z,29.57
2022-12-19T19:03:20.113Z,29.70
2022-12-19T19:05:50.375Z,26.70
2022-12-19T19:08:22.137Z,28.33
2022-12-19T19:11:01.697Z,30.20
2022-12-19T19:13:34.287Z,30.43
2022-12-19T19:16:06.758Z,26.40
2022-12-19T19:18:39.457Z,28.50
2022-12-19T19:21:12.561Z,23.37
2022-12-19T19:23:45.551Z,26.73
2022-12-19T19:26:15.807Z,28.17
2022-12-19T19:28:52.269Z,30.40
2022-12-19T19:31:26.458Z,31.40
2022-12-19T19:34:00.845Z,29.88
2022-12-19T19:36:33.911Z,25.98
2022-12-19T19:39:05.349Z,33.60
2022-12-19T19:41:35.327Z,29.50
2022-12-19T19:44:08.064Z,31.03
2022-12-19T19:46:38.006Z,32.33
2022-12-19T19:49:07.978Z,31.83
2022-12-19T19:51:37.992Z,41.70
2022-12-19T19:54:08.195Z,30.67
2022-12-19T19:56:38.326Z,28.77
2022-12-19T19:59:10.913Z,29.20
2022-12-19T20:01:41.190Z,30.03
2022-12-19T20:04:11.253Z,32.43
2022-12-19T20:06:41.226Z,28.50
2022-12-19T20:09:11.297Z,32.17
2022-12-19T20:11:41.348Z,31.53
2022-12-19T20:14:13.896Z,30.27
2022-12-19T20:16:43.902Z,29.57
2022-12-19T20:19:15.739Z,29.93
2022-12-19T20:21:45.877Z,24.43
2022-12-19T20:24:16.233Z,26.57
2022-12-19T20:26:46.244Z,28.77
2022-12-19T20:29:19.039Z,26.60
2022-12-19T20:31:49.281Z,29.13
2022-12-19T20:34:20.534Z,34.57
2022-12-19T20:36:50.486Z,25.27
2022-12-19T20:39:22.266Z,32.00
2022-12-19T20:41:52.958Z,31.13
2022-12-19T20:44:25.694Z,30.67
2022-12-19T20:46:55.819Z,26.80
2022-12-19T20:49:26.328Z,27.10
2022-12-19T20:51:56.698Z,31.07
2022-12-19T20:54:26.930Z,31.17
2022-12-19T20:56:56.883Z,30.70
2022-12-19T20:59:29.404Z,32.03
2022-12-19T21:02:00.703Z,27.90
2022-12-19T21:04:31.234Z,27.00
2022-12-19T21:07:01.357Z,33.63
2022-12-19T21:09:31.451Z,31.20
2022-12-19T21:12:01.396Z,29.57
2022-12-19T21:14:34.244Z,26.63
2022-12-19T21:17:04.176Z,29.87
2022-12-19T21:19:34.118Z,29.80
2022-12-19T21:22:04.081Z,32.00
2022-12-19T21:24:34.203Z,26.33
2022-12-19T21:27:04.179Z,27.63
2022-12-19T21:29:36.783Z,29.27
2022-12-19T21:32:06.803Z,30.03
2022-12-19T21:34:36.991Z,28.77
2022-12-19T21:37:06.914Z,29.27
2022-12-19T21:39:36.871Z,29.87
2022-12-19T21:42:07.069Z,29.63
2022-12-19T21:44:39.755Z,24.47
2022-12-19T21:47:09.858Z,30.37
2022-12-19T21:49:39.944Z,22.33
2022-12-19T21:52:10.212Z,32.70
2022-12-19T21:54:40.305Z,32.93
2022-12-19T21:57:10.340Z,27.93
2022-12-19T21:59:42.840Z,32.70
2022-12-19T22:02:13.287Z,28.73
2022-12-19T22:04:43.456Z,30.67
2022-12-19T22:07:13.429Z,33.60
2022-12-19T22:09:43.379Z,27.93
2022-12-19T22:12:15.445Z,26.73
2022-12-19T22:14:48.791Z,29.60
2022-12-19T22:17:18.865Z,32.17
2022-12-19T22:19:49.098Z,33.33
2022-12-19T22:22:19.106Z,32.77
2022-12-19T22:24:49.041Z,30.77
2022-12-19T22:27:19.004Z,34.60
2022-12-19T22:29:51.613Z,32.43
2022-12-19T22:32:21.536Z,32.07
2022-12-19T22:34:51.880Z,38.97
2022-12-19T22:37:21.875Z,30.47
2022-12-19T22:39:51.825Z,29.67
2022-12-19T22:42:21.800Z,33.30
2022-12-19T22:44:55.598Z,33.77
2022-12-19T22:47:25.552Z,32.58
2022-12-19T22:49:56.317Z,29.83
2022-12-19T22:52:26.339Z,30.30
2022-12-19T22:54:56.356Z,26.97
2022-12-19T22:57:26.473Z,25.97
2022-12-19T22:59:58.989Z,32.87
2022-12-19T23:02:29.002Z,27.30
2022-12-19T23:04:59.493Z,30.10
2022-12-19T23:07:29.501Z,30.13
2022-12-19T23:09:59.519Z,30.40
2022-12-19T23:12:29.489Z,32.57
2022-12-19T23:15:02.247Z,36.40
2022-12-19T23:17:32.254Z,34.70
2022-12-19T23:20:02.240Z,32.00
2022-12-19T23:22:32.170Z,30.13
2022-12-19T23:25:02.143Z,35.63
2022-12-19T23:27:32.122Z,30.43
2022-12-19T23:30:04.639Z,37.00
2022-12-19T23:32:35.069Z,32.73
2022-12-19T23:35:05.123Z,33.10
2022-12-19T23:37:35.250Z,35.43
2022-12-19T23:40:05.362Z,43.33
2022-12-19T23:42:35.316Z,31.97
2022-12-19T23:45:09.004Z,40.83
2022-12-19T23:47:38.996Z,32.45
2022-12-19T23:50:10.691Z,35.00
2022-12-19T23:52:41.625Z,36.50
2022-12-19T23:55:12.484Z,29.20
2022-12-19T23:57:42.514Z,33.93
